Time;durP1;ratioP1;P1;durP2;ratioP2;P2;SDS_P1;SDS_P2;PMS_P1;PMS_P2;Temp;Humidity;BMP_temperature;BMP_pressure;BME280_temperature;BME280_humidity;BME280_pressure;Samples;Min_cycle;Max_cycle;Signal;HPM_P1;HPM_P2
2022/12/31 00:01:09;;;;;;;7.80;5.77;;;2.40;84.20;;;;;;5040267;28;20433;-66
2022/12/31 00:03:35;;;;;;;9.90;6.23;;;2.40;84.10;;;;;;5027922;28;20448;-66
2022/12/31 00:06:11;;;;;;;8.03;5.77;;;2.50;84.40;;;;;;5037955;28;20487;-66
2022/12/31 00:08:37;;;;;;;6.83;4.70;;;2.60;84.20;;;;;;5021287;28;20505;-66
2022/12/31 00:11:02;;;;;;;8.00;5.43;;;2.70;84.00;;;;;;5030250;28;20927;-66
2022/12/31 00:13:28;;;;;;;6.47;5.17;;;2.80;83.70;;;;;;5007349;28;20183;-66
2022/12/31 00:15:53;;;;;;;6.27;4.83;;;2.80;83.40;;;;;;5030908;28;20187;-66
2022/12/31 00:18:19;;;;;;;7.60;5.03;;;2.80;83.40;;;;;;5024189;28;20246;-66
2022/12/31 00:20:45;;;;;;;8.00;4.83;;;2.80;83.10;;;;;;5038224;28;20199;-67
2022/12/31 00:23:10;;;;;;;6.70;5.07;;;2.80;83.40;;;;;;5026970;28;20275;-66
2022/12/31 00:25:36;;;;;;;6.03;5.13;;;2.80;83.30;;;;;;5005640;28;20188;-66
2022/12/31 00:28:04;;;;;;;8.37;5.10;;;2.90;83.30;;;;;;5029991;28;20213;-66
2022/12/31 00:30:29;;;;;;;10.10;5.57;;;2.90;83.00;;;;;;5028949;28;20190;-66
2022/12/31 00:32:55;;;;;;;7.10;5.20;;;2.90;82.90;;;;;;5024121;28;20521;-66
2022/12/31 00:35:21;;;;;;;7.70;5.13;;;2.90;83.20;;;;;;5025977;28;20226;-66
2022/12/31 00:37:46;;;;;;;7.43;5.00;;;2.90;83.20;;;;;;5018847;28;20267;-66
2022/12/31 00:40:13;;;;;;;7.77;4.57;;;2.90;83.10;;;;;;5014598;28;20193;-66
2022/12/31 00:42:38;;;;;;;7.57;5.00;;;2.90;83.00;;;;;;5031203;28;20197;-66
2022/12/31 00:45:05;;;;;;;5.57;4.80;;;3.00;82.90;;;;;;5023175;28;20438;-66
2022/12/31 00:47:30;;;;;;;7.03;4.80;;;3.00;83.00;;;;;;5017595;28;20219;-66
2022/12/31 00:49:56;;;;;;;6.87;4.60;;;3.00;82.80;;;;;;5030331;28;20496;-66
2022/12/31 00:52:22;;;;;;;10.87;5.47;;;3.00;82.90;;;;;;5016001;28;20202;-66
2022/12/31 00:54:47;;;;;;;5.83;4.27;;;2.90;83.00;;;;;;5024253;28;20217;-66
2022/12/31 00:57:13;;;;;;;6.43;4.80;;;3.00;83.00;;;;;;5023142;28;20258;-66
2022/12/31 00:59:39;;;;;;;7.80;4.97;;;2.90;83.00;;;;;;5024783;28;20282;-66
2022/12/31 01:02:04;;;;;;;6.87;5.13;;;2.90;82.80;;;;;;5027418;28;20191;-66
2022/12/31 01:04:30;;;;;;;6.33;4.63;;;2.90;82.80;;;;;;5022946;28;20219;-66
2022/12/31 01:06:55;;;;;;;9.00;4.63;;;2.90;83.20;;;;;;5023069;28;20246;-66
2022/12/31 01:09:21;;;;;;;7.53;4.67;;;2.90;83.20;;;;;;5022880;28;20195;-66
2022/12/31 01:11:49;;;;;;;7.03;4.43;;;2.90;83.20;;;;;;5004663;28;20187;-66
2022/12/31 01:14:17;;;;;;;7.23;4.57;;;2.90;83.10;;;;;;5028973;28;20274;-66
2022/12/31 01:16:48;;;;;;;6.63;4.87;;;2.90;83.10;;;;;;5028912;28;20423;-66
2022/12/31 01:19:19;;;;;;;7.63;5.10;;;2.90;83.10;;;;;;5037642;28;20444;-66
2022/12/31 01:21:46;;;;;;;6.00;4.60;;;3.00;83.10;;;;;;5031046;28;20457;-66
2022/12/31 01:24:12;;;;;;;7.80;4.57;;;3.00;83.00;;;;;;5045345;28;20423;-66
2022/12/31 01:26:38;;;;;;;5.83;4.20;;;3.00;83.30;;;;;;5043951;28;20447;-66
2022/12/31 01:29:05;;;;;;;7.10;4.20;;;3.00;83.40;;;;;;5028089;28;20457;-66
2022/12/31 01:31:33;;;;;;;6.00;4.17;;;3.00;83.30;;;;;;5017001;28;20445;-66
2022/12/31 01:33:59;;;;;;;4.20;3.80;;;3.10;83.30;;;;;;5021157;28;20423;-66
2022/12/31 01:36:27;;;;;;;9.53;4.90;;;3.10;83.30;;;;;;5034887;28;20917;-66
2022/12/31 01:38:55;;;;;;;7.10;4.90;;;3.10;83.30;;;;;;5036505;28;20432;-66
2022/12/31 01:41:24;;;;;;;8.17;4.90;;;3.10;83.20;;;;;;5034937;28;20489;-66
2022/12/31 01:43:56;;;;;;;8.33;5.10;;;3.10;83.20;;;;;;5016772;28;20498;-66
2022/12/31 01:46:27;;;;;;;5.30;4.27;;;3.10;83.20;;;;;;5029680;28;20536;-66
2022/12/31 01:48:59;;;;;;;5.97;4.47;;;3.10;83.20;;;;;;5050990;28;20453;-66
2022/12/31 01:51:28;;;;;;;10.10;5.23;;;3.10;83.10;;;;;;5041864;28;20437;-66
2022/12/31 01:53:54;;;;;;;10.37;5.87;;;3.10;83.20;;;;;;5038905;28;20480;-66
2022/12/31 01:56:21;;;;;;;6.30;4.43;;;3.10;83.20;;;;;;5024853;28;20430;-66
2022/12/31 01:58:49;;;;;;;8.57;4.97;;;3.10;83.20;;;;;;5049087;28;20431;-66
2022/12/31 02:01:21;;;;;;;6.37;4.57;;;3.20;83.20;;;;;;5029163;28;20445;-66
2022/12/31 02:03:47;;;;;;;6.07;4.87;;;3.20;83.30;;;;;;5045508;28;20509;-66
2022/12/31 02:06:41;;;;;;;5.77;4.90;;;3.20;83.00;;;;;;5024608;28;20514;-66
2022/12/31 02:09:08;;;;;;;10.07;5.07;;;3.20;83.00;;;;;;5027455;28;20206;-66
2022/12/31 02:11:36;;;;;;;7.37;4.93;;;3.20;82.80;;;;;;5012360;28;20533;-66
2022/12/31 02:14:21;;;;;;;6.80;4.37;;;3.10;82.90;;;;;;5031297;28;20526;-66
2022/12/31 02:17:12;;;;;;;6.57;4.80;;;3.10;83.00;;;;;;5024312;28;20521;-66
2022/12/31 02:19:58;;;;;;;7.00;4.50;;;3.10;82.80;;;;;;5024812;28;20449;-66
2022/12/31 02:22:42;;;;;;;6.63;4.97;;;3.10;82.90;;;;;;5035488;28;20438;-66
2022/12/31 02:25:20;;;;;;;7.23;5.17;;;3.10;83.00;;;;;;5039588;28;20429;-66
2022/12/31 02:28:06;;;;;;;5.40;4.27;;;3.10;83.00;;;;;;5019630;28;20469;-66
2022/12/31 02:30:33;;;;;;;7.33;5.17;;;3.10;83.00;;;;;;5046403;28;20474;-66
2022/12/31 02:33:28;;;;;;;7.03;5.13;;;3.10;83.10;;;;;;5019496;28;20462;-66
2022/12/31 02:36:05;;;;;;;6.43;4.70;;;3.20;82.80;;;;;;5039117;28;20525;-66
2022/12/31 02:38:37;;;;;;;8.70;4.77;;;3.20;82.80;;;;;;5027310;28;20425;-66
2022/12/31 02:41:03;;;;;;;6.63;4.23;;;3.30;82.80;;;;;;5034424;28;20534;-66
2022/12/31 02:43:29;;;;;;;9.90;4.63;;;3.30;82.80;;;;;;5016667;28;20497;-66
2022/12/31 02:46:29;;;;;;;5.07;4.43;;;3.30;82.80;;;;;;5019092;28;20210;-66
2022/12/31 02:49:03;;;;;;;7.00;4.40;;;3.30;82.90;;;;;;5029398;28;20207;-66
2022/12/31 02:51:31;;;;;;;6.67;4.53;;;3.30;82.90;;;;;;5032591;28;20439;-66
2022/12/31 02:54:05;;;;;;;6.77;4.60;;;3.30;82.70;;;;;;5030031;28;20933;-66
2022/12/31 02:56:44;;;;;;;7.23;4.43;;;3.30;82.70;;;;;;5030930;28;20431;-66
2022/12/31 03:02:18;;;;;;;7.47;5.30;;;3.20;82.90;;;;;;5039741;28;20416;-66
2022/12/31 03:04:56;;;;;;;7.77;4.93;;;3.20;83.00;;;;;;5024440;28;20481;-66
2022/12/31 03:07:27;;;;;;;8.17;4.77;;;3.20;82.80;;;;;;5025252;28;20469;-66
2022/12/31 03:09:54;;;;;;;7.63;4.23;;;3.10;82.80;;;;;;5049548;28;20445;-66
2022/12/31 03:15:18;;;;;;;8.20;5.97;;;3.10;82.90;;;;;;5021223;28;20413;-66
2022/12/31 03:18:04;;;;;;;5.70;4.77;;;3.00;82.80;;;;;;5047586;28;20426;-66
2022/12/31 03:23:24;;;;;;;8.27;4.47;;;3.00;82.90;;;;;;5025878;28;20537;-66
2022/12/31 03:25:52;;;;;;;8.67;4.73;;;3.00;82.90;;;;;;5017760;28;20430;-66
2022/12/31 03:28:20;;;;;;;6.13;4.57;;;2.90;82.90;;;;;;5025466;28;20472;-66
2022/12/31 03:30:52;;;;;;;6.93;4.10;;;2.90;83.00;;;;;;5031577;28;20433;-66
2022/12/31 03:33:18;;;;;;;6.77;4.37;;;2.90;83.20;;;;;;5031364;28;20425;-66
2022/12/31 03:35:46;;;;;;;7.73;4.00;;;2.90;83.20;;;;;;5016104;28;20441;-66
2022/12/31 03:38:12;;;;;;;8.00;4.97;;;2.90;83.30;;;;;;5013686;28;20428;-66
2022/12/31 03:40:41;;;;;;;9.83;4.47;;;2.90;83.50;;;;;;5046858;28;20419;-66
2022/12/31 03:43:07;;;;;;;6.17;4.53;;;2.90;83.40;;;;;;5040094;28;20186;-66
2022/12/31 03:45:33;;;;;;;6.97;4.67;;;3.00;83.70;;;;;;5032072;28;20437;-66
2022/12/31 03:48:00;;;;;;;4.47;4.07;;;3.00;83.90;;;;;;5030256;28;20239;-66
2022/12/31 03:50:26;;;;;;;6.47;4.27;;;3.00;83.70;;;;;;5043676;28;20928;-66
2022/12/31 03:52:52;;;;;;;6.10;3.70;;;3.00;83.70;;;;;;5026873;28;20598;-66
2022/12/31 03:55:17;;;;;;;5.53;4.23;;;3.10;83.80;;;;;;5037824;28;20438;-66
2022/12/31 03:57:43;;;;;;;7.00;4.43;;;3.10;83.50;;;;;;5000314;28;20199;-66
2022/12/31 04:00:12;;;;;;;8.83;4.80;;;3.10;83.50;;;;;;5026527;28;20196;-66
2022/12/31 04:02:39;;;;;;;6.13;5.03;;;3.10;83.40;;;;;;5045758;28;20205;-66
2022/12/31 04:05:05;;;;;;;6.60;4.73;;;3.10;83.20;;;;;;5024665;28;20479;-66
2022/12/31 04:07:31;;;;;;;5.77;4.47;;;3.00;83.40;;;;;;5028308;28;20482;-66
2022/12/31 04:09:57;;;;;;;7.53;5.00;;;3.00;83.40;;;;;;5025516;28;20505;-66
2022/12/31 04:12:23;;;;;;;6.43;4.30;;;3.00;83.40;;;;;;5034617;28;20183;-66
2022/12/31 04:14:49;;;;;;;6.23;3.90;;;3.00;83.50;;;;;;5025961;28;20193;-66
2022/12/31 04:17:15;;;;;;;5.60;4.73;;;3.00;83.60;;;;;;5026105;28;20259;-66
2022/12/31 04:19:40;;;;;;;7.77;4.80;;;3.00;83.50;;;;;;5019873;28;20580;-66
2022/12/31 04:22:06;;;;;;;5.90;3.70;;;3.00;83.70;;;;;;5032126;28;20182;-66
2022/12/31 04:24:32;;;;;;;7.20;4.57;;;3.00;83.60;;;;;;5018047;28;20192;-66
2022/12/31 04:26:58;;;;;;;5.70;4.00;;;3.10;83.60;;;;;;5037079;28;20188;-67
2022/12/31 04:29:24;;;;;;;5.60;4.33;;;3.10;83.70;;;;;;5029076;28;20187;-66
2022/12/31 04:31:49;;;;;;;6.67;4.23;;;3.10;83.70;;;;;;5018931;28;20203;-66
2022/12/31 04:34:15;;;;;;;5.10;3.77;;;3.10;83.60;;;;;;5017159;28;20241;-66
2022/12/31 04:36:41;;;;;;;6.00;4.00;;;3.10;83.60;;;;;;5028533;28;20180;-66
2022/12/31 04:39:06;;;;;;;5.03;4.30;;;3.10;83.70;;;;;;5018263;28;20198;-66
2022/12/31 04:41:32;;;;;;;7.27;4.63;;;3.10;83.60;;;;;;5026952;28;20255;-66
2022/12/31 04:43:59;;;;;;;5.33;3.67;;;3.10;83.70;;;;;;5023277;28;20199;-66
2022/12/31 04:46:28;;;;;;;6.77;4.70;;;3.10;83.70;;;;;;5021414;28;20187;-66
2022/12/31 04:48:54;;;;;;;6.23;4.07;;;3.10;83.70;;;;;;5026395;28;20458;-66
2022/12/31 04:51:20;;;;;;;5.97;3.97;;;3.10;83.60;;;;;;5027541;28;20437;-66
2022/12/31 04:53:46;;;;;;;5.47;4.07;;;3.10;83.60;;;;;;5014398;28;20191;-66
2022/12/31 04:56:13;;;;;;;5.60;4.50;;;3.10;83.60;;;;;;5042920;28;20441;-66
2022/12/31 04:58:39;;;;;;;6.10;3.77;;;3.20;83.90;;;;;;5021722;28;20178;-66
2022/12/31 05:01:06;;;;;;;6.10;3.90;;;3.20;84.00;;;;;;5024550;28;20430;-66
2022/12/31 05:03:32;;;;;;;6.67;4.00;;;3.20;83.90;;;;;;5024048;28;20480;-66
2022/12/31 05:06:21;;;;;;;5.97;4.17;;;3.30;84.00;;;;;;5044828;28;20477;-66
2022/12/31 05:08:48;;;;;;;6.70;4.20;;;3.30;84.10;;;;;;5025432;28;20969;-66
2022/12/31 05:11:14;;;;;;;7.07;5.30;;;3.30;83.90;;;;;;5016151;28;20438;-66
2022/12/31 05:13:40;;;;;;;6.73;4.30;;;3.50;82.70;;;;;;5036520;28;20437;-66
2022/12/31 05:16:06;;;;;;;7.10;4.30;;;3.60;82.70;;;;;;5021906;28;20438;-66
2022/12/31 05:18:32;;;;;;;5.40;4.33;;;3.60;82.50;;;;;;5023824;28;20269;-66
2022/12/31 05:20:58;;;;;;;7.00;4.70;;;3.70;81.50;;;;;;5011636;28;20940;-66
2022/12/31 05:23:24;;;;;;;7.20;4.83;;;3.90;81.20;;;;;;5017072;28;20501;-66
2022/12/31 05:25:50;;;;;;;7.93;4.77;;;3.90;80.90;;;;;;5024964;28;20217;-66
2022/12/31 05:28:16;;;;;;;7.07;4.23;;;4.00;80.60;;;;;;5029814;28;20524;-66
2022/12/31 05:30:42;;;;;;;7.23;4.60;;;4.00;80.40;;;;;;5030663;28;20190;-66
2022/12/31 05:33:09;;;;;;;6.23;4.47;;;4.00;80.80;;;;;;5021029;28;20500;-66
2022/12/31 05:35:35;;;;;;;5.90;4.07;;;4.00;80.70;;;;;;5027456;28;20469;-67
2022/12/31 05:38:01;;;;;;;5.60;4.70;;;3.90;80.70;;;;;;5027388;28;20422;-67
2022/12/31 05:40:27;;;;;;;4.77;4.20;;;3.90;80.50;;;;;;5020089;28;20437;-67
2022/12/31 05:42:53;;;;;;;7.57;4.73;;;3.90;80.70;;;;;;5022054;28;20187;-67
2022/12/31 05:45:19;;;;;;;5.53;4.00;;;3.90;80.80;;;;;;5033570;28;20470;-67
2022/12/31 05:47:45;;;;;;;4.23;3.77;;;3.90;81.00;;;;;;5023762;28;20536;-67
2022/12/31 05:50:14;;;;;;;6.60;4.40;;;3.80;80.90;;;;;;5009395;28;20195;-67
2022/12/31 05:52:40;;;;;;;6.33;4.53;;;3.70;81.20;;;;;;5044009;28;20434;-67
2022/12/31 05:55:06;;;;;;;5.63;4.67;;;3.70;81.40;;;;;;5014473;28;20430;-67
2022/12/31 05:57:32;;;;;;;5.57;4.27;;;3.70;81.40;;;;;;5022985;28;20430;-67
2022/12/31 05:59:58;;;;;;;5.40;4.30;;;3.60;81.50;;;;;;5025892;28;20464;-67
2022/12/31 06:02:23;;;;;;;5.63;4.20;;;3.60;81.80;;;;;;5028711;28;20194;-66
2022/12/31 06:04:49;;;;;;;5.73;3.70;;;3.70;82.10;;;;;;5043593;28;20211;-67
2022/12/31 06:07:15;;;;;;;6.27;3.93;;;3.70;82.00;;;;;;5022712;28;20250;-66
2022/12/31 06:09:40;;;;;;;10.47;5.57;;;3.70;82.00;;;;;;5034037;28;20195;-67
2022/12/31 06:12:06;;;;;;;5.80;4.53;;;3.80;82.00;;;;;;5031185;28;20191;-67
2022/12/31 06:14:32;;;;;;;7.30;5.30;;;3.80;81.90;;;;;;5022745;28;20234;-66
2022/12/31 06:16:58;;;;;;;7.00;4.40;;;3.90;82.00;;;;;;5038947;28;20458;-67
2022/12/31 06:19:24;;;;;;;6.60;4.20;;;3.90;82.00;;;;;;5029614;28;20219;-67
2022/12/31 06:21:52;;;;;;;8.23;4.87;;;3.90;81.90;;;;;;5022573;28;20191;-67
2022/12/31 06:24:18;;;;;;;5.30;4.47;;;3.90;81.90;;;;;;5008009;28;20209;-67
2022/12/31 06:26:44;;;;;;;4.77;3.90;;;3.90;82.20;;;;;;5040092;28;20499;-67
2022/12/31 06:29:09;;;;;;;5.17;3.60;;;3.90;82.10;;;;;;5010139;28;20298;-66
2022/12/31 06:31:36;;;;;;;6.47;4.53;;;4.00;81.90;;;;;;5019480;28;20187;-67
2022/12/31 06:34:02;;;;;;;5.33;3.83;;;4.00;81.70;;;;;;5033847;28;20190;-67
2022/12/31 06:36:28;;;;;;;6.60;4.13;;;4.00;81.70;;;;;;5045565;28;20432;-67
2022/12/31 06:38:54;;;;;;;7.90;4.63;;;4.00;81.60;;;;;;5014223;28;21567;-68
2022/12/31 06:41:20;;;;;;;7.90;4.07;;;4.00;81.70;;;;;;5025816;28;20191;-67
2022/12/31 06:43:46;;;;;;;6.43;4.73;;;4.00;81.70;;;;;;5027135;28;20179;-67
2022/12/31 06:46:15;;;;;;;5.03;4.00;;;4.10;81.60;;;;;;5014648;28;20446;-67
2022/12/31 06:48:43;;;;;;;6.50;4.23;;;4.10;81.60;;;;;;5029132;28;20482;-67
2022/12/31 06:51:13;;;;;;;6.37;4.23;;;4.10;81.40;;;;;;5000644;28;20450;-67
2022/12/31 06:53:39;;;;;;;7.03;4.70;;;4.10;81.40;;;;;;5024396;28;20430;-68
2022/12/31 06:56:13;;;;;;;6.43;4.63;;;4.10;81.40;;;;;;5001920;28;20434;-68
2022/12/31 06:58:39;;;;;;;6.73;4.33;;;4.10;81.20;;;;;;5037550;28;20954;-67
2022/12/31 07:01:28;;;;;;;5.97;4.60;;;4.10;81.20;;;;;;5013941;28;20539;-66
2022/12/31 07:04:22;;;;;;;6.43;4.67;;;4.20;81.00;;;;;;5021424;28;20201;-67
2022/12/31 07:06:53;;;;;;;5.47;4.53;;;4.30;80.90;;;;;;5021352;28;20480;-67
2022/12/31 07:09:35;;;;;;;6.17;4.43;;;4.30;80.80;;;;;;5015805;28;20462;-67
2022/12/31 07:12:09;;;;;;;6.17;3.93;;;4.40;80.70;;;;;;5030873;28;20434;-67
2022/12/31 07:14:55;;;;;;;8.03;4.90;;;4.40;80.60;;;;;;5029938;28;20430;-66
2022/12/31 07:17:30;;;;;;;9.27;5.27;;;4.50;79.70;;;;;;5026621;28;20415;-66
2022/12/31 07:20:11;;;;;;;6.30;4.87;;;4.50;79.60;;;;;;5023773;28;20419;-65
2022/12/31 07:22:38;;;;;;;8.27;4.93;;;4.50;79.60;;;;;;5037583;28;20957;-66
2022/12/31 07:25:05;;;;;;;6.47;4.63;;;4.50;78.90;;;;;;5002823;28;20415;-67
2022/12/31 07:27:49;;;;;;;7.47;4.83;;;4.40;79.40;;;;;;5020330;28;20465;-67
2022/12/31 07:30:22;;;;;;;5.90;4.23;;;4.40;79.90;;;;;;5025736;28;20975;-67
2022/12/31 07:33:13;;;;;;;5.67;4.33;;;4.50;79.80;;;;;;5022162;28;20517;-66
2022/12/31 07:36:00;;;;;;;6.60;4.33;;;4.50;80.10;;;;;;5017439;28;20449;-66
2022/12/31 07:38:51;;;;;;;6.13;4.47;;;4.50;80.10;;;;;;5035597;28;20519;-66
2022/12/31 07:41:46;;;;;;;4.60;3.77;;;4.50;80.20;;;;;;5030053;28;20429;-66
2022/12/31 07:44:24;;;;;;;8.40;5.80;;;4.60;80.20;;;;;;5035064;28;20432;-66
2022/12/31 07:46:56;;;;;;;6.53;5.07;;;4.70;80.30;;;;;;5022886;28;20435;-66
2022/12/31 07:49:23;;;;;;;8.10;5.37;;;4.70;80.40;;;;;;5051890;28;20497;-66
2022/12/31 07:51:49;;;;;;;5.93;5.03;;;4.70;80.40;;;;;;5042292;28;20425;-67
2022/12/31 07:54:15;;;;;;;5.23;4.10;;;4.70;80.50;;;;;;5016717;28;20976;-66
2022/12/31 07:56:41;;;;;;;9.20;5.13;;;4.90;80.60;;;;;;5028628;28;20434;-67
2022/12/31 07:59:16;;;;;;;7.37;4.53;;;4.90;80.40;;;;;;5017546;28;20195;-66
2022/12/31 08:01:58;;;;;;;9.27;4.80;;;5.00;80.30;;;;;;5044632;28;20441;-67
2022/12/31 08:04:24;;;;;;;5.70;4.30;;;5.00;80.20;;;;;;5030421;28;20484;-66
2022/12/31 08:07:01;;;;;;;6.33;3.80;;;5.10;80.10;;;;;;5033463;28;20477;-66
2022/12/31 08:09:27;;;;;;;6.13;3.67;;;5.10;79.70;;;;;;5021427;28;20211;-67
2022/12/31 08:11:58;;;;;;;5.83;4.20;;;5.30;77.80;;;;;;5027649;28;20516;-67
2022/12/31 08:14:25;;;;;;;8.33;4.37;;;5.30;78.20;;;;;;5032824;28;20184;-67
2022/12/31 08:16:51;;;;;;;6.00;4.00;;;5.40;78.40;;;;;;5023229;28;20957;-67
2022/12/31 08:19:30;;;;;;;4.67;3.83;;;5.50;77.80;;;;;;5034113;28;20524;-68
2022/12/31 08:22:06;;;;;;;5.83;4.03;;;5.50;77.40;;;;;;5029587;28;20441;-67
2022/12/31 08:24:35;;;;;;;5.57;4.07;;;5.60;77.30;;;;;;5020200;28;20420;-67
2022/12/31 08:27:09;;;;;;;6.47;4.67;;;5.60;77.50;;;;;;5035008;28;20539;-67
2022/12/31 08:29:40;;;;;;;8.17;5.17;;;5.60;77.80;;;;;;5045375;28;20439;-67
2022/12/31 08:32:06;;;;;;;6.93;4.37;;;5.60;77.60;;;;;;5034970;28;20539;-68
2022/12/31 08:34:40;;;;;;;4.70;3.53;;;5.70;77.30;;;;;;5026326;28;20537;-67
2022/12/31 08:37:27;;;;;;;6.40;4.07;;;5.80;77.50;;;;;;5042496;28;20206;-68
2022/12/31 08:40:06;;;;;;;7.53;4.17;;;5.90;77.10;;;;;;5021361;28;20417;-68
2022/12/31 08:42:51;;;;;;;5.77;3.97;;;6.00;76.50;;;;;;5030069;28;20433;-67
2022/12/31 08:45:27;;;;;;;6.63;3.93;;;6.00;76.10;;;;;;5030975;28;20449;-68
2022/12/31 08:48:18;;;;;;;6.07;3.87;;;6.10;76.30;;;;;;5027251;28;20470;-68
2022/12/31 08:50:44;;;;;;;6.00;4.60;;;6.20;75.90;;;;;;5026770;28;20452;-68
2022/12/31 08:53:10;;;;;;;5.87;4.10;;;6.20;75.90;;;;;;5006813;28;20439;-67
2022/12/31 08:55:36;;;;;;;6.83;4.70;;;6.20;76.70;;;;;;5024030;28;20191;-67
2022/12/31 08:58:39;;;;;;;5.57;4.17;;;6.30;75.90;;;;;;5015717;28;20203;-67
2022/12/31 09:01:06;;;;;;;5.17;4.47;;;6.30;76.30;;;;;;5034152;28;20302;-67
2022/12/31 09:04:04;;;;;;;10.03;4.60;;;6.30;76.20;;;;;;5017937;28;20431;-67
2022/12/31 09:06:41;;;;;;;4.37;3.43;;;6.30;76.90;;;;;;5022761;28;20493;-68
2022/12/31 09:09:24;;;;;;;5.33;4.00;;;6.20;76.80;;;;;;5022299;28;20591;-68
2022/12/31 09:12:10;;;;;;;5.27;4.47;;;6.20;76.70;;;;;;5035980;28;20430;-67
2022/12/31 09:14:49;;;;;;;6.23;4.30;;;6.20;76.90;;;;;;5016984;28;20535;-67
2022/12/31 09:17:39;;;;;;;6.50;4.37;;;6.20;77.30;;;;;;5034137;28;20949;-67
2022/12/31 09:20:13;;;;;;;6.63;4.60;;;6.20;77.20;;;;;;5033483;28;20458;-68
2022/12/31 09:22:38;;;;;;;7.17;4.60;;;6.20;77.50;;;;;;5033891;28;20442;-67
2022/12/31 09:25:04;;;;;;;5.20;3.73;;;6.30;77.00;;;;;;5026264;28;20970;-67
2022/12/31 09:27:42;;;;;;;5.63;4.27;;;6.30;76.60;;;;;;5015554;28;20212;-66
2022/12/31 09:30:12;;;;;;;6.63;4.40;;;6.30;76.50;;;;;;5030974;28;20421;-66
2022/12/31 09:33:03;;;;;;;6.30;4.70;;;6.40;76.70;;;;;;5026950;28;20434;-66
2022/12/31 09:36:02;;;;;;;4.97;3.90;;;6.40;77.00;;;;;;5018448;28;20423;-66
2022/12/31 09:39:02;;;;;;;9.10;6.93;;;6.40;76.70;;;;;;5031711;28;20947;-66
2022/12/31 09:41:31;;;;;;;5.67;4.63;;;6.50;76.80;;;;;;5015479;28;20434;-68
2022/12/31 09:44:12;;;;;;;4.83;4.30;;;6.50;76.60;;;;;;5022904;28;20453;-65
2022/12/31 09:46:44;;;;;;;9.30;6.40;;;6.50;76.40;;;;;;5028812;28;20532;-63
2022/12/31 09:49:41;;;;;;;10.73;6.27;;;6.50;76.00;;;;;;5046949;28;20470;-65
2022/12/31 09:52:49;;;;;;;6.80;5.80;;;6.60;76.50;;;;;;5012854;28;20976;-65
2022/12/31 09:55:52;;;;;;;7.00;5.63;;;6.60;76.40;;;;;;5043415;28;20188;-66
2022/12/31 09:58:27;;;;;;;7.30;6.00;;;6.60;76.20;;;;;;5035259;28;20553;-66
2022/12/31 10:01:14;;;;;;;7.60;5.87;;;6.60;76.70;;;;;;5025448;28;20430;-66
2022/12/31 10:04:13;;;;;;;7.03;4.87;;;6.60;76.50;;;;;;5028084;28;20441;-65
2022/12/31 10:07:10;;;;;;;6.93;5.53;;;6.70;76.10;;;;;;5024861;28;20512;-65
2022/12/31 10:10:13;;;;;;;4.43;4.00;;;6.70;76.30;;;;;;5012611;28;20478;-65
2022/12/31 10:12:50;;;;;;;7.33;4.83;;;6.70;75.90;;;;;;5011682;28;20445;-66
2022/12/31 10:15:51;;;;;;;5.80;4.30;;;6.80;76.20;;;;;;5034532;28;20460;-66
2022/12/31 10:18:38;;;;;;;8.17;4.43;;;6.90;75.80;;;;;;5023642;28;20440;-66
2022/12/31 10:21:27;;;;;;;6.93;4.33;;;6.90;74.40;;;;;;5036482;28;20538;-67
2022/12/31 10:23:55;;;;;;;5.90;3.83;;;7.00;73.40;;;;;;5022623;28;20431;-67
2022/12/31 10:26:21;;;;;;;5.37;3.93;;;7.10;72.90;;;;;;5034376;28;20430;-68
2022/12/31 10:29:27;;;;;;;6.43;4.23;;;7.10;73.20;;;;;;5019348;28;20207;-67
2022/12/31 10:32:11;;;;;;;5.53;3.40;;;7.20;73.40;;;;;;5018039;28;20574;-67
2022/12/31 10:34:54;;;;;;;3.83;3.37;;;7.20;72.70;;;;;;5022705;28;20437;-66
2022/12/31 10:37:43;;;;;;;6.20;3.90;;;7.20;72.50;;;;;;5032334;28;20422;-67
2022/12/31 10:40:14;;;;;;;5.97;3.60;;;7.40;70.60;;;;;;5022650;28;20501;-66
2022/12/31 10:43:24;;;;;;;6.83;3.47;;;7.50;70.60;;;;;;5042701;28;20187;-67
2022/12/31 10:46:08;;;;;;;5.00;3.27;;;7.50;71.20;;;;;;4998269;28;20191;-66
2022/12/31 10:48:37;;;;;;;4.53;3.93;;;7.60;70.30;;;;;;5028567;28;20221;-64
2022/12/31 10:51:48;;;;;;;5.80;3.50;;;7.60;71.00;;;;;;5026456;28;20218;-67
2022/12/31 10:54:33;;;;;;;5.50;4.00;;;7.70;71.30;;;;;;5033444;28;20192;-66
2022/12/31 10:57:18;;;;;;;4.63;3.73;;;7.80;70.60;;;;;;5031939;28;20244;-66
2022/12/31 10:59:53;;;;;;;5.07;3.80;;;7.90;70.00;;;;;;5023336;28;20301;-66
2022/12/31 11:02:37;;;;;;;5.97;4.07;;;8.00;68.70;;;;;;5032283;28;20200;-66
2022/12/31 11:05:22;;;;;;;4.97;3.80;;;8.10;68.70;;;;;;5036918;28;20194;-65
2022/12/31 11:08:05;;;;;;;4.47;3.50;;;8.20;68.20;;;;;;5033082;28;20247;-66
2022/12/31 11:10:55;;;;;;;5.30;3.63;;;8.20;67.60;;;;;;5041347;28;20190;-67
2022/12/31 11:13:31;;;;;;;5.40;3.80;;;8.20;67.50;;;;;;5035948;28;20192;-64
2022/12/31 11:16:14;;;;;;;5.97;3.93;;;8.30;67.20;;;;;;5027946;28;20207;-65
2022/12/31 11:18:49;;;;;;;5.30;3.73;;;8.30;66.50;;;;;;5023732;28;20223;-66
2022/12/31 11:21:17;;;;;;;3.70;3.23;;;8.40;65.80;;;;;;5025255;28;20491;-66
2022/12/31 11:24:27;;;;;;;4.60;3.53;;;8.50;66.20;;;;;;5027773;28;20182;-66
2022/12/31 11:27:16;;;;;;;4.63;3.37;;;8.60;67.00;;;;;;5014260;28;20207;-65
2022/12/31 11:29:48;;;;;;;5.57;3.30;;;8.60;65.40;;;;;;5026478;28;20683;-66
2022/12/31 11:32:26;;;;;;;4.97;3.40;;;8.70;64.90;;;;;;5024008;28;20175;-65
2022/12/31 11:35:25;;;;;;;4.47;3.47;;;8.90;64.80;;;;;;5024039;28;20179;-66
2022/12/31 11:37:59;;;;;;;6.10;3.47;;;9.00;64.00;;;;;;5032771;28;20199;-66
2022/12/31 11:40:36;;;;;;;4.53;3.60;;;9.00;64.80;;;;;;5031709;28;20189;-66
2022/12/31 11:43:24;;;;;;;5.57;3.63;;;9.20;64.50;;;;;;5031493;28;20179;-66
2022/12/31 11:46:08;;;;;;;4.43;3.07;;;9.20;64.90;;;;;;5019349;28;20643;-66
2022/12/31 11:49:15;;;;;;;5.90;3.37;;;9.40;64.50;;;;;;5042980;28;20205;-67
2022/12/31 11:52:07;;;;;;;5.10;3.33;;;9.40;63.00;;;;;;5017643;28;20184;-66
2022/12/31 11:54:48;;;;;;;4.73;3.10;;;9.50;62.60;;;;;;5013755;28;20188;-66
2022/12/31 11:57:23;;;;;;;4.37;2.93;;;9.60;62.60;;;;;;5029516;28;20191;-66
2022/12/31 11:59:57;;;;;;;6.93;3.67;;;9.80;62.40;;;;;;5014851;28;20182;-66
2022/12/31 12:02:34;;;;;;;3.77;2.93;;;9.80;62.40;;;;;;5034346;28;20197;-66
2022/12/31 12:05:03;;;;;;;4.60;3.27;;;10.00;62.10;;;;;;5041192;28;20183;-66
2022/12/31 12:07:30;;;;;;;4.53;2.80;;;10.00;61.40;;;;;;5037721;28;20232;-66
2022/12/31 12:10:00;;;;;;;7.23;3.30;;;10.10;61.60;;;;;;5030780;28;20175;-66
2022/12/31 12:12:36;;;;;;;5.60;3.30;;;10.10;60.70;;;;;;5021889;28;20279;-66
2022/12/31 12:15:07;;;;;;;6.00;3.53;;;10.10;60.90;;;;;;5030875;28;20183;-66
2022/12/31 12:17:33;;;;;;;6.03;3.07;;;10.30;59.80;;;;;;5029841;28;20179;-65
2022/12/31 12:20:15;;;;;;;5.20;3.17;;;10.40;59.20;;;;;;5022056;28;20187;-65
2022/12/31 12:22:53;;;;;;;4.67;2.80;;;10.40;60.30;;;;;;5045384;28;20187;-65
2022/12/31 12:25:21;;;;;;;4.60;3.10;;;10.40;60.30;;;;;;5033585;28;20241;-65
2022/12/31 12:27:48;;;;;;;5.90;3.20;;;10.50;59.70;;;;;;5036399;28;20211;-64
2022/12/31 12:30:25;;;;;;;5.10;3.20;;;10.40;59.30;;;;;;5031554;28;20185;-65
2022/12/31 12:32:57;;;;;;;6.17;2.67;;;10.40;58.60;;;;;;5023539;28;20183;-66
2022/12/31 12:35:31;;;;;;;8.50;3.20;;;10.50;59.00;;;;;;5022439;28;20196;-65
2022/12/31 12:38:05;;;;;;;7.77;3.43;;;10.50;58.80;;;;;;5022358;28;20220;-65
2022/12/31 12:40:33;;;;;;;6.13;2.93;;;10.50;59.20;;;;;;5020145;28;20191;-67
2022/12/31 12:42:59;;;;;;;3.10;2.63;;;10.60;59.70;;;;;;5027210;28;20203;-66
2022/12/31 12:45:46;;;;;;;6.33;3.10;;;10.60;59.40;;;;;;5024085;28;20196;-65
2022/12/31 12:48:35;;;;;;;4.27;2.90;;;10.80;59.00;;;;;;5011276;28;20229;-66
2022/12/31 12:51:10;;;;;;;4.10;3.17;;;10.80;58.70;;;;;;5020470;28;20206;-66
2022/12/31 12:54:20;;;;;;;4.60;2.93;;;10.90;58.10;;;;;;5028457;28;20195;-65
2022/12/31 12:56:50;;;;;;;5.03;3.20;;;11.00;58.10;;;;;;5013889;28;20630;-66
2022/12/31 12:59:54;;;;;;;3.93;2.83;;;11.00;57.50;;;;;;5018212;28;20188;-65
2022/12/31 13:02:31;;;;;;;5.27;2.60;;;11.00;58.30;;;;;;5025629;28;20309;-66
2022/12/31 13:05:23;;;;;;;4.73;3.27;;;11.10;58.10;;;;;;5023731;28;20183;-65
2022/12/31 13:07:52;;;;;;;6.47;3.17;;;11.20;57.50;;;;;;5027766;28;20789;-66
2022/12/31 13:10:39;;;;;;;5.57;2.87;;;11.50;57.30;;;;;;5039770;28;20663;-67
2022/12/31 13:13:23;;;;;;;3.63;2.97;;;11.60;56.20;;;;;;5034604;28;20192;-66
2022/12/31 13:16:29;;;;;;;8.20;3.97;;;11.80;55.40;;;;;;5030603;28;20179;-65
2022/12/31 13:19:15;;;;;;;5.87;4.90;;;11.80;56.70;;;;;;5008183;28;20290;-65
2022/12/31 13:21:43;;;;;;;13.70;7.10;;;11.90;55.10;;;;;;5032511;28;20184;-65
2022/12/31 13:24:09;;;;;;;10.20;6.63;;;11.70;56.30;;;;;;5017692;28;20200;-65
2022/12/31 13:26:40;;;;;;;14.23;7.10;;;11.70;55.50;;;;;;5040643;28;20213;-65
2022/12/31 13:29:14;;;;;;;10.47;7.60;;;11.50;56.20;;;;;;5041107;28;20272;-65
2022/12/31 13:31:41;;;;;;;11.97;7.20;;;11.50;57.10;;;;;;5025768;28;20230;-65
2022/12/31 13:34:14;;;;;;;12.73;7.77;;;11.40;56.60;;;;;;5021260;28;20184;-64
2022/12/31 13:36:43;;;;;;;9.73;7.00;;;11.40;57.20;;;;;;5027381;28;20200;-63
2022/12/31 13:39:26;;;;;;;11.93;6.70;;;11.30;57.30;;;;;;5018268;28;20750;-64